createdAt,value
2023-01-29T00:00:29.979Z,11.45
2023-01-29T00:03:32.892Z,10.35
2023-01-29T00:06:36.772Z,11.07
2023-01-29T00:09:40.000Z,11.60
2023-01-29T00:12:42.535Z,12.40
2023-01-29T00:15:53.990Z,12.13
2023-01-29T00:18:56.617Z,11.18
2023-01-29T00:22:00.484Z,11.30
2023-01-29T00:25:03.135Z,11.82
2023-01-29T00:28:06.127Z,12.75
2023-01-29T00:31:09.666Z,12.88
2023-01-29T00:34:12.235Z,13.52
2023-01-29T00:37:16.173Z,12.38
2023-01-29T00:40:19.107Z,12.40
2023-01-29T00:43:39.147Z,12.27
2023-01-29T00:46:41.734Z,10.90
2023-01-29T00:49:44.260Z,12.55
2023-01-29T00:52:49.610Z,12.15
2023-01-29T00:55:52.149Z,12.68
2023-01-29T00:58:54.702Z,11.52
2023-01-29T01:02:14.724Z,12.52
2023-01-29T01:05:18.788Z,12.63
2023-01-29T01:08:40.439Z,12.05
2023-01-29T01:11:42.956Z,12.43
2023-01-29T01:14:46.036Z,11.32
2023-01-29T01:17:49.565Z,11.98
2023-01-29T01:20:57.821Z,11.00
2023-01-29T01:24:01.777Z,12.32
2023-01-29T01:27:04.376Z,11.25
2023-01-29T01:30:09.611Z,10.95
2023-01-29T01:33:12.194Z,10.98
2023-01-29T01:36:15.840Z,10.65
2023-01-29T01:39:19.715Z,11.18
2023-01-29T01:42:22.333Z,11.57
2023-01-29T01:45:26.914Z,12.00
2023-01-29T01:48:29.528Z,11.90
2023-01-29T01:51:32.627Z,12.30
2023-01-29T01:54:36.500Z,13.27
2023-01-29T01:57:39.073Z,13.45
2023-01-29T02:00:41.668Z,12.70
2023-01-29T02:04:03.098Z,14.50
2023-01-29T02:07:23.399Z,15.57
2023-01-29T02:10:27.321Z,15.60
2023-01-29T02:13:29.845Z,15.70
2023-01-29T02:16:33.109Z,15.25
2023-01-29T02:19:40.611Z,16.33
2023-01-29T02:26:21.414Z,17.65
2023-01-29T02:29:28.708Z,17.42
2023-01-29T02:32:32.390Z,17.30
2023-01-29T02:35:37.413Z,16.98
2023-01-29T02:38:42.774Z,18.15
2023-01-29T02:41:47.029Z,16.83
2023-01-29T02:44:53.245Z,17.33
2023-01-29T02:47:58.481Z,18.33
2023-01-29T02:51:03.510Z,18.48
2023-01-29T02:54:08.704Z,19.95
2023-01-29T02:57:14.752Z,20.77
2023-01-29T03:00:19.699Z,22.05
2023-01-29T03:03:24.484Z,20.85
2023-01-29T03:06:28.517Z,22.95
2023-01-29T03:09:34.042Z,19.45
2023-01-29T03:12:36.733Z,19.17
2023-01-29T03:15:42.465Z,19.50
2023-01-29T03:18:48.653Z,18.10
2023-01-29T03:21:55.239Z,18.33
2023-01-29T03:25:16.552Z,17.87
2023-01-29T03:28:36.912Z,18.77
2023-01-29T03:31:58.653Z,18.13
2023-01-29T03:35:03.924Z,17.77
2023-01-29T03:38:09.750Z,15.25
2023-01-29T03:41:19.385Z,17.17
2023-01-29T03:44:26.387Z,17.38
2023-01-29T03:47:34.496Z,17.80
2023-01-29T03:50:39.796Z,17.55
2023-01-29T03:53:44.158Z,18.48
2023-01-29T03:56:54.430Z,16.40
2023-01-29T03:59:58.884Z,17.67
2023-01-29T04:03:05.381Z,17.42
2023-01-29T04:06:12.394Z,16.83
2023-01-29T04:09:16.895Z,16.05
2023-01-29T04:12:21.155Z,16.20
2023-01-29T04:15:23.835Z,15.85
2023-01-29T04:18:27.779Z,17.58
2023-01-29T04:21:31.763Z,16.42
2023-01-29T04:24:34.367Z,17.70
2023-01-29T04:27:41.625Z,16.52
2023-01-29T04:30:46.615Z,15.50
2023-01-29T04:33:53.855Z,17.13
2023-01-29T04:37:03.571Z,16.75
2023-01-29T04:40:13.972Z,16.77
2023-01-29T04:43:19.062Z,17.67
2023-01-29T04:46:23.527Z,16.38
2023-01-29T04:49:34.292Z,17.95
2023-01-29T04:52:40.378Z,16.02
2023-01-29T04:55:44.856Z,16.98
2023-01-29T04:58:48.494Z,15.80
2023-01-29T05:01:51.037Z,16.42
2023-01-29T05:04:55.085Z,16.58
2023-01-29T05:07:57.682Z,15.80
2023-01-29T05:11:00.427Z,15.93
2023-01-29T05:14:03.758Z,17.20
2023-01-29T05:17:08.677Z,17.17
2023-01-29T05:20:13.488Z,15.50
2023-01-29T05:23:17.068Z,16.95
2023-01-29T05:26:37.193Z,17.15
2023-01-29T05:29:40.163Z,16.05
2023-01-29T05:32:42.741Z,17.50
2023-01-29T05:35:46.988Z,17.10
2023-01-29T05:38:49.809Z,16.50
2023-01-29T05:41:52.383Z,16.88
2023-01-29T05:44:55.040Z,17.38
2023-01-29T05:47:57.939Z,18.55
2023-01-29T05:51:02.299Z,17.67
2023-01-29T05:54:05.088Z,18.58
2023-01-29T05:57:07.624Z,17.55
2023-01-29T06:00:13.029Z,16.95
2023-01-29T06:03:16.052Z,17.70
2023-01-29T06:06:19.991Z,17.98
2023-01-29T06:09:22.573Z,18.15
2023-01-29T06:12:25.148Z,17.58
2023-01-29T06:15:27.733Z,18.35
2023-01-29T06:18:30.258Z,18.30
2023-01-29T06:21:34.176Z,17.90
2023-01-29T06:24:37.264Z,18.52
2023-01-29T06:27:39.832Z,18.60
2023-01-29T06:30:42.450Z,18.30
2023-01-29T06:33:45.035Z,19.10
2023-01-29T06:36:48.953Z,18.83
2023-01-29T06:39:51.527Z,16.58
2023-01-29T06:42:54.114Z,18.88
2023-01-29T06:45:57.503Z,17.85
2023-01-29T06:49:01.055Z,18.67
2023-01-29T06:52:05.128Z,18.27
2023-01-29T06:55:08.580Z,18.52
2023-01-29T06:58:12.633Z,18.48
2023-01-29T07:01:29.288Z,18.05
2023-01-29T07:04:37.702Z,18.80
2023-01-29T07:07:41.591Z,18.02
2023-01-29T07:10:44.162Z,19.70
2023-01-29T07:13:46.753Z,19.98
2023-01-29T07:16:49.326Z,19.92
2023-01-29T07:19:51.857Z,21.02
2023-01-29T07:22:55.747Z,19.27
2023-01-29T07:26:01.004Z,19.40
2023-01-29T07:29:03.615Z,20.02
2023-01-29T07:32:07.693Z,19.85
2023-01-29T07:35:10.570Z,19.92
2023-01-29T07:38:14.506Z,20.23
2023-01-29T07:41:17.073Z,20.77
2023-01-29T07:44:19.599Z,19.88
2023-01-29T07:47:22.167Z,19.58
2023-01-29T07:50:24.928Z,20.95
2023-01-29T07:53:29.070Z,21.42
2023-01-29T07:56:31.649Z,20.98
2023-01-29T07:59:34.234Z,20.95
2023-01-29T08:02:36.876Z,21.70
2023-01-29T08:05:39.503Z,21.08
2023-01-29T08:08:43.407Z,27.50
2023-01-29T08:11:45.935Z,21.50
2023-01-29T08:14:48.533Z,19.98
2023-01-29T08:17:57.769Z,22.50
2023-01-29T08:21:01.795Z,20.98
2023-01-29T08:24:06.484Z,20.63
2023-01-29T08:27:09.107Z,21.73
2023-01-29T08:30:12.954Z,22.63
2023-01-29T08:33:17.564Z,23.02
2023-01-29T08:36:20.341Z,21.92
2023-01-29T08:39:24.278Z,21.58
2023-01-29T08:42:26.890Z,20.83
2023-01-29T08:45:30.085Z,22.05
2023-01-29T08:48:33.211Z,22.33
2023-01-29T08:51:35.796Z,24.08
2023-01-29T08:54:39.737Z,21.70
2023-01-29T08:57:42.325Z,23.40
2023-01-29T09:00:45.038Z,22.40
2023-01-29T09:03:47.640Z,22.75
2023-01-29T09:06:50.236Z,23.40
2023-01-29T09:09:55.250Z,23.58
2023-01-29T09:12:57.770Z,22.50
2023-01-29T09:16:01.102Z,22.83
2023-01-29T09:19:03.687Z,24.30
2023-01-29T09:22:06.305Z,23.60
2023-01-29T09:25:10.735Z,24.58
2023-01-29T09:28:13.349Z,25.55
2023-01-29T09:31:15.972Z,25.30
2023-01-29T09:34:18.626Z,24.63
2023-01-29T09:37:23.133Z,22.63
2023-01-29T09:40:27.947Z,24.63
2023-01-29T09:43:37.196Z,25.17
2023-01-29T09:46:41.026Z,25.00
2023-01-29T09:49:46.703Z,23.98
2023-01-29T09:52:51.635Z,25.88
2023-01-29T09:55:57.375Z,25.60
2023-01-29T09:59:01.658Z,25.25
2023-01-29T10:02:09.903Z,26.05
2023-01-29T10:05:22.265Z,24.17
2023-01-29T10:08:42.359Z,25.02
2023-01-29T10:11:47.665Z,23.60
2023-01-29T10:14:54.343Z,27.17
2023-01-29T10:18:07.359Z,26.40
2023-01-29T10:21:18.016Z,24.85
2023-01-29T10:24:25.299Z,27.48
2023-01-29T10:27:32.935Z,25.73
2023-01-29T10:30:38.143Z,24.92
2023-01-29T10:34:01.007Z,27.10
2023-01-29T10:37:09.359Z,26.85
2023-01-29T10:40:19.825Z,27.17
2023-01-29T10:43:27.920Z,25.42
2023-01-29T10:46:37.728Z,26.35
2023-01-29T10:49:50.227Z,26.33
2023-01-29T10:53:04.697Z,25.85
2023-01-29T10:56:22.351Z,26.25
2023-01-29T10:59:37.770Z,25.80
2023-01-29T11:02:44.812Z,25.95
2023-01-29T11:05:51.424Z,26.67
2023-01-29T11:08:55.414Z,26.03
2023-01-29T11:11:58.884Z,25.73
2023-01-29T11:15:04.151Z,25.83
2023-01-29T11:18:10.569Z,23.27
2023-01-29T11:21:13.141Z,26.27
2023-01-29T11:24:17.514Z,26.40
2023-01-29T11:27:25.722Z,26.70
2023-01-29T11:30:30.031Z,25.42
2023-01-29T11:33:32.643Z,20.40
2023-01-29T11:36:37.983Z,25.13
2023-01-29T11:39:40.514Z,25.70
2023-01-29T11:42:43.080Z,26.58
2023-01-29T11:45:47.094Z,26.08
2023-01-29T11:48:51.540Z,26.58
2023-01-29T11:51:54.336Z,25.17
2023-01-29T11:54:58.268Z,22.17
2023-01-29T11:58:02.875Z,25.55
2023-01-29T12:01:06.923Z,24.45
2023-01-29T12:04:16.218Z,24.02
2023-01-29T12:07:19.175Z,26.00
2023-01-29T12:10:32.743Z,25.02
2023-01-29T12:13:36.042Z,25.38
2023-01-29T12:16:41.138Z,25.23
2023-01-29T12:19:45.513Z,25.98
2023-01-29T12:22:51.369Z,24.58
2023-01-29T12:25:58.015Z,24.50
2023-01-29T12:29:25.172Z,24.93
2023-01-29T12:32:33.135Z,26.45
2023-01-29T12:35:37.554Z,22.42
2023-01-29T12:38:40.956Z,22.67
2023-01-29T12:41:46.127Z,23.73
2023-01-29T12:44:50.803Z,22.20
2023-01-29T12:47:56.489Z,24.13
2023-01-29T12:51:02.335Z,24.05
2023-01-29T12:54:06.100Z,21.92
2023-01-29T12:57:10.991Z,21.50
2023-01-29T13:00:15.528Z,20.40
2023-01-29T13:03:22.018Z,22.20
2023-01-29T13:06:27.413Z,20.30
2023-01-29T13:09:31.026Z,20.65
2023-01-29T13:12:33.572Z,20.05
2023-01-29T13:15:36.782Z,21.17
2023-01-29T13:18:44.113Z,22.85
2023-01-29T13:21:46.657Z,22.35
2023-01-29T13:24:58.758Z,21.35
2023-01-29T13:28:06.473Z,22.65
2023-01-29T13:31:21.705Z,19.05
2023-01-29T13:34:26.372Z,19.25
2023-01-29T13:37:31.772Z,22.83
2023-01-29T13:40:35.471Z,21.65
2023-01-29T13:43:39.247Z,21.98
2023-01-29T13:46:42.182Z,19.15
2023-01-29T13:49:46.985Z,23.40
2023-01-29T13:52:54.307Z,21.55
2023-01-29T13:55:56.870Z,19.80
2023-01-29T13:58:59.666Z,19.98
2023-01-29T14:02:04.728Z,21.35
2023-01-29T14:05:42.552Z,20.63
2023-01-29T14:08:45.252Z,21.25
2023-01-29T14:11:48.975Z,21.65
2023-01-29T14:14:52.801Z,21.95
2023-01-29T14:17:56.969Z,18.00
2023-01-29T14:21:04.976Z,20.40
2023-01-29T14:24:12.695Z,19.48
2023-01-29T14:27:20.373Z,20.33
2023-01-29T14:30:28.830Z,19.00
2023-01-29T14:33:35.479Z,20.38
2023-01-29T14:36:42.659Z,21.87
2023-01-29T14:39:45.933Z,18.42
2023-01-29T14:42:55.975Z,20.23
2023-01-29T14:45:58.516Z,19.90
2023-01-29T14:49:01.063Z,19.60
2023-01-29T14:52:05.028Z,19.02
2023-01-29T14:55:08.896Z,19.05
2023-01-29T14:58:13.799Z,17.23
2023-01-29T15:01:20.265Z,19.02
2023-01-29T15:04:24.574Z,19.90
2023-01-29T15:07:31.727Z,17.95
2023-01-29T15:10:41.251Z,16.08
2023-01-29T15:13:46.304Z,18.02
2023-01-29T15:16:53.104Z,17.88
2023-01-29T15:19:56.742Z,18.67
2023-01-29T15:23:00.860Z,19.40
2023-01-29T15:26:05.440Z,18.92
2023-01-29T15:29:07.976Z,19.83
2023-01-29T15:32:14.530Z,20.83
2023-01-29T15:35:25.840Z,19.33
2023-01-29T15:38:29.822Z,18.50
2023-01-29T15:41:32.363Z,20.17
2023-01-29T15:44:34.988Z,20.00
2023-01-29T15:47:37.612Z,21.88
2023-01-29T15:50:41.309Z,18.13
2023-01-29T15:53:46.945Z,21.17
2023-01-29T15:56:51.254Z,20.20
2023-01-29T15:59:54.773Z,22.00
2023-01-29T16:02:57.596Z,20.17
2023-01-29T16:06:00.245Z,19.92
2023-01-29T16:09:04.595Z,21.85
2023-01-29T16:12:07.496Z,20.02
2023-01-29T16:15:24.334Z,20.40
2023-01-29T16:18:30.197Z,19.02
2023-01-29T16:21:33.911Z,20.15
2023-01-29T16:24:38.317Z,19.88
2023-01-29T16:27:43.174Z,18.52
2023-01-29T16:30:45.732Z,20.13
2023-01-29T16:33:49.510Z,20.13
2023-01-29T16:36:53.511Z,21.50
2023-01-29T16:39:58.332Z,19.85
2023-01-29T16:43:31.351Z,20.15
2023-01-29T16:46:37.172Z,20.80
2023-01-29T16:49:44.784Z,22.20
2023-01-29T16:56:04.901Z,19.70
2023-01-29T16:59:07.595Z,19.65
2023-01-29T17:02:14.544Z,21.45
2023-01-29T17:05:20.563Z,20.40
2023-01-29T17:08:24.639Z,17.30
2023-01-29T17:11:32.734Z,20.70
2023-01-29T17:14:35.940Z,21.73
2023-01-29T17:17:38.567Z,20.90
2023-01-29T17:20:41.154Z,21.38
2023-01-29T17:23:43.723Z,21.00
2023-01-29T17:26:47.683Z,20.75
2023-01-29T17:29:52.060Z,20.33
2023-01-29T17:32:55.209Z,21.98
2023-01-29T17:35:57.757Z,21.65
2023-01-29T17:39:01.100Z,18.27
2023-01-29T17:42:05.205Z,23.02
2023-01-29T17:45:08.796Z,21.55
2023-01-29T17:48:13.203Z,21.08
2023-01-29T17:51:16.610Z,21.75
2023-01-29T17:54:19.142Z,21.75
2023-01-29T17:57:23.067Z,21.92
2023-01-29T18:00:25.850Z,21.65
2023-01-29T18:03:28.471Z,21.60
2023-01-29T18:06:31.028Z,25.75
2023-01-29T18:09:33.553Z,22.45
2023-01-29T18:12:37.428Z,21.42
2023-01-29T18:15:40.093Z,23.20
2023-01-29T18:18:42.701Z,22.33
2023-01-29T18:21:45.283Z,21.40
2023-01-29T18:24:47.879Z,21.70
2023-01-29T18:27:51.766Z,21.40
2023-01-29T18:30:54.333Z,20.50
2023-01-29T18:33:56.966Z,21.83
2023-01-29T18:37:00.215Z,20.83
2023-01-29T18:40:02.798Z,18.20
2023-01-29T18:43:06.671Z,22.38
2023-01-29T18:46:09.321Z,22.08
2023-01-29T18:49:11.878Z,20.70
2023-01-29T18:52:14.460Z,22.08
2023-01-29T18:55:17.512Z,20.83
2023-01-29T18:58:26.624Z,21.23
2023-01-29T19:01:36.421Z,17.13
2023-01-29T19:04:38.951Z,19.67
2023-01-29T19:07:41.498Z,19.63
2023-01-29T19:10:44.320Z,20.65
2023-01-29T19:13:49.736Z,21.13
2023-01-29T19:16:52.306Z,19.83
2023-01-29T19:19:56.491Z,19.40
2023-01-29T19:22:59.500Z,22.42
2023-01-29T19:26:02.062Z,21.88
2023-01-29T19:29:07.493Z,20.40
2023-01-29T19:32:11.572Z,20.73
2023-01-29T19:35:14.161Z,21.38
2023-01-29T19:38:20.918Z,20.35
2023-01-29T19:41:23.528Z,21.90
2023-01-29T19:44:27.496Z,22.17
2023-01-29T19:47:30.105Z,22.27
2023-01-29T19:50:32.718Z,21.10
2023-01-29T19:53:35.522Z,19.98
2023-01-29T19:56:38.053Z,20.73
2023-01-29T19:59:45.593Z,20.73
2023-01-29T20:02:48.499Z,21.90
2023-01-29T20:05:51.062Z,23.20
2023-01-29T20:08:53.625Z,20.77
2023-01-29T20:11:56.225Z,18.83
2023-01-29T20:15:00.151Z,20.17
2023-01-29T20:18:03.822Z,19.33
2023-01-29T20:21:07.154Z,16.92
2023-01-29T20:24:12.360Z,16.77
2023-01-29T20:27:14.958Z,16.95
2023-01-29T20:30:19.565Z,15.70
2023-01-29T20:33:22.309Z,14.07
2023-01-29T20:36:24.863Z,13.48
2023-01-29T20:39:27.388Z,16.58
2023-01-29T20:42:29.905Z,14.05
2023-01-29T20:45:35.896Z,16.45
2023-01-29T20:48:38.579Z,12.82
2023-01-29T20:51:41.139Z,13.60
2023-01-29T20:54:43.835Z,15.30
2023-01-29T20:57:46.547Z,14.23
2023-01-29T21:01:10.689Z,13.13
2023-01-29T21:04:13.269Z,13.82
2023-01-29T21:07:15.856Z,12.93
2023-01-29T21:10:18.779Z,10.15
2023-01-29T21:13:21.508Z,6.28
2023-01-29T21:16:26.915Z,4.78
2023-01-29T21:19:30.820Z,4.45
2023-01-29T21:22:33.361Z,3.83
2023-01-29T21:25:35.962Z,4.43
2023-01-29T21:28:38.543Z,4.20
2023-01-29T21:31:42.544Z,3.50
2023-01-29T21:34:45.189Z,3.28
2023-01-29T21:37:47.740Z,3.08
2023-01-29T21:40:50.270Z,2.22
2023-01-29T21:43:52.850Z,3.30
2023-01-29T21:46:56.812Z,4.85
2023-01-29T21:49:59.372Z,3.08
2023-01-29T21:53:02.014Z,3.08
2023-01-29T21:56:05.039Z,3.47
2023-01-29T21:59:07.630Z,3.83
2023-01-29T22:02:13.566Z,4.90
2023-01-29T22:05:19.640Z,3.33
2023-01-29T22:08:25.484Z,3.55
2023-01-29T22:11:28.330Z,3.33
2023-01-29T22:14:30.906Z,4.53
2023-01-29T22:17:35.221Z,4.20
2023-01-29T22:20:37.919Z,4.50
2023-01-29T22:23:40.513Z,3.42
2023-01-29T22:26:44.159Z,3.67
2023-01-29T22:29:46.829Z,3.90
2023-01-29T22:32:51.005Z,2.85
2023-01-29T22:35:54.611Z,3.95
2023-01-29T22:38:57.178Z,4.15
2023-01-29T22:41:59.763Z,3.67
2023-01-29T22:45:02.339Z,3.08
2023-01-29T22:48:08.188Z,4.55
2023-01-29T22:51:10.833Z,4.05
2023-01-29T22:54:15.363Z,3.55
2023-01-29T22:57:17.951Z,3.60
2023-01-29T23:00:21.321Z,4.95
2023-01-29T23:03:25.328Z,4.25
2023-01-29T23:06:27.860Z,4.18
2023-01-29T23:09:30.435Z,4.63
2023-01-29T23:12:32.995Z,4.50
2023-01-29T23:15:35.573Z,4.10
2023-01-29T23:18:39.669Z,4.70
2023-01-29T23:21:42.189Z,4.20
2023-01-29T23:24:44.764Z,4.75
2023-01-29T23:27:46.719Z,4.68
2023-01-29T23:30:51.964Z,4.30
2023-01-29T23:33:56.265Z,5.93
2023-01-29T23:36:58.933Z,4.35
2023-01-29T23:40:01.552Z,4.28
2023-01-29T23:43:04.122Z,4.85
2023-01-29T23:46:07.134Z,4.32
2023-01-29T23:49:11.021Z,4.35
2023-01-29T23:52:13.603Z,5.40
2023-01-29T23:55:16.219Z,5.10
2023-01-29T23:58:18.804Z,4.50
